createdAt,value
2023-04-29T00:01:59.297Z,28.30
2023-04-29T00:05:05.465Z,23.40
2023-04-29T00:08:09.798Z,20.40
2023-04-29T00:11:13.821Z,17.30
2023-04-29T00:14:17.923Z,19.30
2023-04-29T00:17:21.876Z,17.00
2023-04-29T00:20:25.978Z,18.20
2023-04-29T00:23:29.882Z,21.20
2023-04-29T00:26:35.019Z,19.20
2023-04-29T00:29:38.980Z,20.70
2023-04-29T00:32:44.726Z,23.00
2023-04-29T00:35:48.912Z,23.30
2023-04-29T00:38:53.153Z,22.70
2023-04-29T00:41:57.154Z,19.30
2023-04-29T00:45:01.164Z,20.40
2023-04-29T00:48:05.260Z,20.00
2023-04-29T00:51:10.233Z,18.70
2023-04-29T00:54:14.333Z,19.10
2023-04-29T00:57:19.997Z,16.70
2023-04-29T01:00:26.383Z,18.60
2023-04-29T01:03:32.651Z,16.80
2023-04-29T01:06:58.571Z,17.70
2023-04-29T01:10:22.780Z,21.60
2023-04-29T01:13:40.489Z,18.90
2023-04-29T01:16:55.546Z,20.40
2023-04-29T01:20:00.969Z,17.80
2023-04-29T01:23:05.049Z,17.00
2023-04-29T01:26:09.344Z,21.60
2023-04-29T01:29:46.264Z,15.10
2023-04-29T01:33:03.473Z,17.80
2023-04-29T01:36:20.685Z,24.40
2023-04-29T01:39:46.011Z,24.80
2023-04-29T01:43:02.003Z,20.80
2023-04-29T01:49:13.925Z,20.60
2023-04-29T01:52:18.169Z,20.50
2023-04-29T01:55:29.633Z,16.80
2023-04-29T01:58:47.989Z,24.60
2023-04-29T02:05:18.432Z,17.80
2023-04-29T02:08:29.374Z,15.80
2023-04-29T02:11:33.542Z,19.20
2023-04-29T02:14:38.998Z,18.60
2023-04-29T02:17:43.444Z,15.90
2023-04-29T02:20:49.982Z,14.80
2023-04-29T02:23:54.637Z,13.80
2023-04-29T02:27:00.692Z,20.40
2023-04-29T02:30:06.404Z,15.30
2023-04-29T02:33:10.508Z,16.90
2023-04-29T02:36:14.586Z,17.50
2023-04-29T02:39:20.143Z,15.40
2023-04-29T02:42:24.271Z,13.20
2023-04-29T02:45:28.205Z,17.10
2023-04-29T02:48:32.185Z,17.40
2023-04-29T02:51:36.122Z,13.80
2023-04-29T02:54:40.221Z,15.70
2023-04-29T02:57:44.531Z,22.90
2023-04-29T03:00:48.553Z,16.20
2023-04-29T03:03:52.859Z,17.80
2023-04-29T03:06:57.095Z,15.60
2023-04-29T03:10:03.014Z,10.00
2023-04-29T03:13:07.687Z,10.30
2023-04-29T03:16:17.009Z,9.60
2023-04-29T03:19:21.398Z,14.60
2023-04-29T03:22:26.889Z,13.60
2023-04-29T03:25:31.325Z,13.90
2023-04-29T03:28:35.299Z,16.70
2023-04-29T03:31:39.333Z,20.30
2023-04-29T03:34:43.575Z,14.30
2023-04-29T03:38:07.867Z,13.10
2023-04-29T03:41:12.701Z,13.80
2023-04-29T03:44:16.734Z,12.90
2023-04-29T03:47:20.635Z,10.90
2023-04-29T03:50:26.276Z,15.20
2023-04-29T03:53:30.916Z,12.60
2023-04-29T03:56:34.917Z,12.80
2023-04-29T03:59:38.946Z,12.50
2023-04-29T04:02:43.119Z,10.10
2023-04-29T04:08:52.420Z,10.30
2023-04-29T04:12:01.695Z,14.50
2023-04-29T04:15:06.879Z,13.00
2023-04-29T04:18:10.811Z,14.70
2023-04-29T04:21:15.819Z,16.70
2023-04-29T04:24:23.369Z,11.00
2023-04-29T04:27:27.554Z,11.70
2023-04-29T04:30:36.078Z,12.00
2023-04-29T04:33:41.007Z,11.80
2023-04-29T04:39:50.052Z,9.10
2023-04-29T04:42:55.623Z,8.80
2023-04-29T04:49:05.812Z,11.50
2023-04-29T04:52:12.092Z,11.80
2023-04-29T04:55:16.305Z,10.00
2023-04-29T04:58:22.176Z,9.20
2023-04-29T05:01:26.348Z,9.60
2023-04-29T05:04:30.558Z,11.20
2023-04-29T05:07:37.711Z,11.40
2023-04-29T05:10:42.375Z,10.70
2023-04-29T05:13:48.717Z,12.90
2023-04-29T05:16:53.283Z,14.10
2023-04-29T05:19:57.666Z,9.40
2023-04-29T05:23:02.720Z,8.70
2023-04-29T05:26:09.869Z,10.50
2023-04-29T05:29:14.015Z,10.70
2023-04-29T05:32:31.658Z,9.20
2023-04-29T05:35:35.741Z,9.40
2023-04-29T05:38:40.065Z,12.50
2023-04-29T05:41:46.046Z,10.10
2023-04-29T05:45:09.798Z,11.60
2023-04-29T05:48:14.096Z,8.20
2023-04-29T05:51:18.164Z,8.60
2023-04-29T05:54:22.180Z,8.40
2023-04-29T05:57:26.195Z,7.60
2023-04-29T06:00:31.956Z,8.20
2023-04-29T06:03:38.445Z,11.00
2023-04-29T06:07:06.015Z,9.20
2023-04-29T06:10:26.088Z,11.30
2023-04-29T06:13:31.026Z,7.80
2023-04-29T06:16:35.091Z,6.70
2023-04-29T06:19:39.260Z,10.00
2023-04-29T06:22:43.171Z,9.70
2023-04-29T06:25:47.378Z,9.70
2023-04-29T06:28:51.610Z,7.80
2023-04-29T06:31:56.382Z,7.40
2023-04-29T06:35:01.322Z,7.80
2023-04-29T06:38:24.024Z,6.50
2023-04-29T06:41:46.684Z,7.50
2023-04-29T06:45:10.043Z,6.00
2023-04-29T06:48:23.057Z,10.00
2023-04-29T06:54:32.007Z,7.70
2023-04-29T06:57:36.990Z,7.90
2023-04-29T07:00:41.099Z,8.70
2023-04-29T07:03:45.356Z,6.50
2023-04-29T07:06:49.561Z,7.80
2023-04-29T07:09:54.606Z,8.70
2023-04-29T07:13:00.547Z,6.80
2023-04-29T07:16:05.125Z,7.90
2023-04-29T07:19:09.073Z,10.90
2023-04-29T07:22:13.161Z,7.60
2023-04-29T07:25:17.124Z,6.20
2023-04-29T07:28:21.236Z,5.40
2023-04-29T07:31:25.330Z,5.60
2023-04-29T07:34:29.586Z,5.60
2023-04-29T07:37:33.793Z,9.40
2023-04-29T07:40:37.695Z,5.60
2023-04-29T07:43:42.619Z,5.90
2023-04-29T07:46:46.898Z,7.80
2023-04-29T07:49:51.705Z,8.20
2023-04-29T07:56:06.585Z,7.40
2023-04-29T07:59:10.696Z,5.90
2023-04-29T08:02:16.808Z,7.20
2023-04-29T08:05:22.599Z,8.20
2023-04-29T08:08:26.927Z,9.80
2023-04-29T08:11:30.968Z,6.90
2023-04-29T08:14:34.980Z,6.10
2023-04-29T08:17:39.050Z,6.30
2023-04-29T08:20:43.133Z,6.00
2023-04-29T08:23:47.231Z,5.50
2023-04-29T08:26:52.576Z,8.60
2023-04-29T08:29:56.697Z,9.40
2023-04-29T08:33:00.938Z,8.70
2023-04-29T08:36:06.086Z,8.80
2023-04-29T08:39:10.408Z,6.50
2023-04-29T08:42:14.387Z,9.10
2023-04-29T08:45:20.372Z,6.00
2023-04-29T08:48:26.763Z,7.10
2023-04-29T08:51:32.360Z,6.90
2023-04-29T08:54:36.381Z,8.00
2023-04-29T08:57:42.163Z,6.90
2023-04-29T09:00:46.576Z,7.70
2023-04-29T09:04:25.738Z,8.80
2023-04-29T09:07:32.096Z,11.10
2023-04-29T09:10:37.943Z,6.70
2023-04-29T09:13:41.913Z,8.00
2023-04-29T09:16:48.921Z,5.70
2023-04-29T09:19:52.957Z,6.60
2023-04-29T09:22:59.982Z,8.60
2023-04-29T09:26:04.061Z,7.00
2023-04-29T09:29:09.230Z,9.10
2023-04-29T09:32:19.971Z,7.20
2023-04-29T09:35:28.305Z,9.80
2023-04-29T09:38:32.374Z,6.20
2023-04-29T09:41:36.353Z,8.70
2023-04-29T09:44:42.559Z,6.50
2023-04-29T09:47:46.839Z,6.00
2023-04-29T09:51:02.295Z,5.50
2023-04-29T09:54:22.017Z,5.70
2023-04-29T09:57:42.630Z,5.70
2023-04-29T10:00:48.764Z,6.10
2023-04-29T10:03:55.627Z,7.20
2023-04-29T10:07:01.183Z,5.40
2023-04-29T10:10:06.494Z,8.40
2023-04-29T10:13:10.538Z,5.30
2023-04-29T10:16:31.438Z,3.80
2023-04-29T10:19:45.799Z,5.90
2023-04-29T10:22:52.164Z,4.60
2023-04-29T10:26:00.114Z,8.40
2023-04-29T10:29:05.530Z,5.10
2023-04-29T10:32:10.989Z,7.10
2023-04-29T10:35:16.758Z,8.00
2023-04-29T10:38:26.724Z,4.70
2023-04-29T10:41:37.266Z,4.80
2023-04-29T10:45:18.688Z,8.30
2023-04-29T10:48:24.748Z,6.30
2023-04-29T10:51:48.950Z,6.20
2023-04-29T10:55:03.987Z,8.50
2023-04-29T10:58:46.169Z,7.60
2023-04-29T11:01:52.276Z,8.50
2023-04-29T11:05:10.668Z,5.50
2023-04-29T11:08:24.317Z,3.90
2023-04-29T11:11:58.413Z,6.40
2023-04-29T11:15:05.125Z,7.00
2023-04-29T11:18:11.638Z,6.20
2023-04-29T11:21:15.776Z,7.30
2023-04-29T11:24:19.934Z,7.10
2023-04-29T11:27:26.798Z,6.70
2023-04-29T11:30:32.092Z,5.90
2023-04-29T11:33:36.404Z,6.00
2023-04-29T11:36:40.653Z,6.20
2023-04-29T11:39:44.693Z,7.70
2023-04-29T11:42:49.752Z,5.60
2023-04-29T11:45:54.338Z,6.00
2023-04-29T11:49:00.313Z,5.90
2023-04-29T11:52:04.565Z,7.30
2023-04-29T11:55:12.057Z,5.90
2023-04-29T11:58:16.868Z,6.40
2023-04-29T12:01:21.691Z,6.70
2023-04-29T12:04:26.272Z,6.40
2023-04-29T12:07:30.453Z,4.50
2023-04-29T12:10:36.933Z,5.20
2023-04-29T12:13:41.564Z,6.90
2023-04-29T12:16:46.486Z,6.50
2023-04-29T12:19:51.741Z,7.50
2023-04-29T12:22:55.940Z,6.80
2023-04-29T12:26:01.028Z,6.20
2023-04-29T12:29:05.211Z,4.30
2023-04-29T12:32:16.813Z,8.20
2023-04-29T12:35:22.048Z,5.70
2023-04-29T12:38:28.311Z,4.40
2023-04-29T12:41:42.404Z,7.60
2023-04-29T12:44:47.794Z,5.90
2023-04-29T12:47:52.174Z,6.50
2023-04-29T12:54:04.297Z,5.80
2023-04-29T12:57:10.113Z,6.50
2023-04-29T13:00:15.697Z,9.10
2023-04-29T13:03:22.181Z,4.90
2023-04-29T13:06:27.407Z,5.40
2023-04-29T13:09:31.620Z,7.50
2023-04-29T13:12:35.730Z,6.00
2023-04-29T13:15:39.758Z,7.10
2023-04-29T13:18:53.668Z,6.80
2023-04-29T13:22:07.890Z,7.00
2023-04-29T13:25:12.416Z,6.70
2023-04-29T13:31:21.261Z,6.80
2023-04-29T13:34:25.364Z,4.40
2023-04-29T13:37:29.381Z,8.60
2023-04-29T13:40:38.369Z,5.80
2023-04-29T13:43:43.634Z,5.40
2023-04-29T13:46:48.015Z,7.40
2023-04-29T13:53:23.641Z,6.30
2023-04-29T14:02:39.821Z,8.60
2023-04-29T14:08:48.645Z,4.30
2023-04-29T14:11:52.678Z,6.70
2023-04-29T14:14:59.481Z,5.10
2023-04-29T14:18:04.418Z,6.20
2023-04-29T14:21:08.926Z,9.10
2023-04-29T14:24:13.439Z,5.80
2023-04-29T14:30:21.685Z,4.80
2023-04-29T14:36:29.644Z,5.90
2023-04-29T14:39:33.621Z,4.50
2023-04-29T14:42:37.736Z,8.00
2023-04-29T14:45:42.191Z,7.50
2023-04-29T14:51:50.277Z,7.50
2023-04-29T14:54:54.647Z,8.40
2023-04-29T14:57:58.842Z,5.50
2023-04-29T15:01:02.853Z,5.40
2023-04-29T15:04:07.493Z,5.10
2023-04-29T15:07:15.824Z,9.40
2023-04-29T15:10:19.803Z,5.70
2023-04-29T15:13:23.821Z,4.90
2023-04-29T15:16:28.740Z,6.50
2023-04-29T15:19:32.893Z,5.60
2023-04-29T15:22:37.095Z,7.10
2023-04-29T15:25:40.991Z,5.00
2023-04-29T15:28:46.166Z,8.40
2023-04-29T15:31:50.254Z,5.90
2023-04-29T15:34:55.634Z,5.60
2023-04-29T15:37:59.657Z,8.00
2023-04-29T15:41:04.117Z,8.00
2023-04-29T15:47:12.103Z,5.90
2023-04-29T15:50:16.428Z,10.10
2023-04-29T15:56:25.564Z,5.70
2023-04-29T15:59:30.583Z,6.90
2023-04-29T16:02:34.701Z,6.90
2023-04-29T16:05:38.866Z,6.90
2023-04-29T16:08:42.776Z,5.90
2023-04-29T16:11:47.099Z,8.90
2023-04-29T16:14:51.544Z,8.10
2023-04-29T16:20:59.682Z,6.30
2023-04-29T16:24:03.757Z,7.00
2023-04-29T16:27:07.667Z,8.40
2023-04-29T16:30:12.140Z,6.30
2023-04-29T16:33:16.501Z,6.40
2023-04-29T16:36:20.563Z,7.10
2023-04-29T16:39:24.571Z,9.70
2023-04-29T16:42:28.591Z,7.60
2023-04-29T16:45:32.837Z,7.40
2023-04-29T16:48:36.845Z,9.10
2023-04-29T16:51:40.948Z,7.90
2023-04-29T16:54:44.864Z,7.30
2023-04-29T16:57:48.811Z,9.00
2023-04-29T17:00:53.805Z,8.70
2023-04-29T17:03:58.065Z,6.70
2023-04-29T17:07:03.056Z,18.90
2023-04-29T17:10:08.284Z,8.70
2023-04-29T17:13:12.182Z,8.20
2023-04-29T17:16:17.069Z,9.80
2023-04-29T17:19:21.181Z,11.40
2023-04-29T17:22:25.200Z,9.80
2023-04-29T17:25:29.149Z,7.60
2023-04-29T17:28:33.140Z,11.60
2023-04-29T17:31:48.108Z,10.20
2023-04-29T17:34:53.245Z,9.90
2023-04-29T17:37:57.361Z,9.00
2023-04-29T17:41:02.331Z,10.90
2023-04-29T17:44:08.042Z,8.20
2023-04-29T17:47:12.801Z,14.40
2023-04-29T17:50:17.017Z,10.40
2023-04-29T17:53:21.012Z,13.80
2023-04-29T17:56:26.357Z,8.10
2023-04-29T17:59:30.895Z,10.30
2023-04-29T18:02:34.996Z,9.40
2023-04-29T18:05:39.336Z,9.60
2023-04-29T18:08:43.330Z,9.80
2023-04-29T18:11:47.463Z,9.00
2023-04-29T18:14:52.043Z,12.80
2023-04-29T18:17:56.133Z,11.30
2023-04-29T18:21:00.137Z,11.80
2023-04-29T18:24:04.241Z,12.70
2023-04-29T18:27:08.287Z,9.70
2023-04-29T18:30:13.292Z,13.80
2023-04-29T18:33:17.398Z,9.60
2023-04-29T18:36:21.633Z,12.70
2023-04-29T18:39:25.661Z,10.60
2023-04-29T18:42:30.742Z,12.00
2023-04-29T18:45:35.119Z,13.70
2023-04-29T18:48:40.591Z,14.20
2023-04-29T18:51:47.990Z,16.20
2023-04-29T18:54:52.391Z,16.20
2023-04-29T18:57:56.498Z,14.70
2023-04-29T19:01:02.700Z,12.60
2023-04-29T19:04:08.620Z,11.90
2023-04-29T19:07:13.858Z,11.80
2023-04-29T19:10:17.895Z,12.20
2023-04-29T19:13:22.127Z,11.50
2023-04-29T19:16:26.683Z,18.30
2023-04-29T19:19:30.967Z,24.00
2023-04-29T19:22:34.982Z,28.50
2023-04-29T19:25:39.311Z,21.00
2023-04-29T19:28:43.336Z,21.40
2023-04-29T19:31:47.376Z,23.00
2023-04-29T19:34:51.438Z,29.00
2023-04-29T19:37:55.568Z,38.90
2023-04-29T19:40:59.493Z,43.40
2023-04-29T19:44:03.505Z,45.90
2023-04-29T19:47:07.477Z,46.00
2023-04-29T19:50:11.490Z,50.50
2023-04-29T19:53:15.471Z,52.00
2023-04-29T19:56:20.069Z,50.20
2023-04-29T20:02:28.021Z,44.80
2023-04-29T20:05:32.212Z,47.70
2023-04-29T20:08:37.301Z,40.80
2023-04-29T20:11:41.293Z,42.20
2023-04-29T20:14:45.709Z,41.30
2023-04-29T20:17:49.759Z,37.20
2023-04-29T20:20:53.748Z,39.90
2023-04-29T20:23:57.675Z,37.70
2023-04-29T20:27:01.665Z,34.80
2023-04-29T20:30:06.575Z,33.90
2023-04-29T20:33:10.605Z,36.50
2023-04-29T20:36:14.557Z,36.20
2023-04-29T20:39:18.758Z,38.30
2023-04-29T20:42:22.682Z,35.80
2023-04-29T20:45:26.790Z,44.80
2023-04-29T20:48:30.902Z,42.80
2023-04-29T20:51:34.921Z,48.50
2023-04-29T20:54:39.179Z,46.80
2023-04-29T20:57:43.141Z,38.20
2023-04-29T21:00:47.052Z,36.30
2023-04-29T21:03:52.212Z,36.00
2023-04-29T21:06:56.231Z,37.00
2023-04-29T21:10:00.193Z,30.90
2023-04-29T21:13:04.370Z,31.20
2023-04-29T21:16:08.546Z,31.80
2023-04-29T21:19:12.585Z,31.30
2023-04-29T21:22:16.523Z,34.20
2023-04-29T21:25:20.531Z,32.70
2023-04-29T21:28:24.553Z,34.80
2023-04-29T21:31:30.260Z,36.60
2023-04-29T21:34:35.454Z,37.60
2023-04-29T21:37:39.466Z,33.80
2023-04-29T21:40:46.631Z,31.90
2023-04-29T21:43:50.998Z,32.90
2023-04-29T21:46:55.228Z,36.30
2023-04-29T21:49:59.403Z,42.30
2023-04-29T21:53:03.610Z,41.70
2023-04-29T21:56:07.937Z,44.00
2023-04-29T21:59:11.820Z,33.40
2023-04-29T22:02:22.393Z,38.00
2023-04-29T22:05:26.982Z,32.50
2023-04-29T22:08:30.937Z,33.20
2023-04-29T22:11:35.005Z,28.60
2023-04-29T22:14:39.011Z,33.90
2023-04-29T22:17:43.102Z,31.50
2023-04-29T22:20:47.232Z,31.50
2023-04-29T22:23:51.269Z,28.40
2023-04-29T22:26:55.405Z,26.10
2023-04-29T22:29:59.577Z,24.90
2023-04-29T22:33:03.655Z,25.80
2023-04-29T22:36:07.840Z,24.80
2023-04-29T22:39:11.964Z,25.90
2023-04-29T22:42:15.874Z,29.80
2023-04-29T22:45:19.824Z,30.90
2023-04-29T22:48:26.578Z,23.90
2023-04-29T22:51:32.325Z,24.80
2023-04-29T22:54:36.337Z,25.50
2023-04-29T22:57:40.465Z,24.70
2023-04-29T23:00:52.870Z,24.10
2023-04-29T23:03:56.989Z,22.00
2023-04-29T23:07:00.902Z,21.20
2023-04-29T23:10:05.923Z,18.30
2023-04-29T23:13:09.866Z,18.80
2023-04-29T23:16:13.925Z,23.00
2023-04-29T23:19:17.943Z,23.20
2023-04-29T23:22:21.876Z,17.60
2023-04-29T23:25:26.126Z,20.00
2023-04-29T23:28:30.178Z,17.10
2023-04-29T23:31:34.251Z,21.60
2023-04-29T23:34:38.214Z,18.80
2023-04-29T23:37:42.248Z,19.30
2023-04-29T23:40:47.078Z,20.70
2023-04-29T23:43:51.042Z,18.20
2023-04-29T23:46:55.058Z,21.60
2023-04-29T23:49:58.958Z,19.50
2023-04-29T23:53:03.184Z,22.00
2023-04-29T23:56:08.068Z,20.90
2023-04-29T23:59:12.035Z,18.20
